createdAt,value
2022-07-28T00:00:44.554Z,22.09
2022-07-28T00:03:11.348Z,21.96
2022-07-28T00:05:38.278Z,21.92
2022-07-28T00:08:05.490Z,22.04
2022-07-28T00:10:32.475Z,21.98
2022-07-28T00:13:00.078Z,21.84
2022-07-28T00:15:27.633Z,21.66
2022-07-28T00:17:54.515Z,21.79
2022-07-28T00:20:21.455Z,21.74
2022-07-28T00:22:48.315Z,21.74
2022-07-28T00:25:15.444Z,21.76
2022-07-28T00:27:42.205Z,21.78
2022-07-28T00:30:10.145Z,21.77
2022-07-28T00:32:37.931Z,21.59
2022-07-28T00:35:08.121Z,21.54
2022-07-28T00:37:35.743Z,21.53
2022-07-28T00:40:07.937Z,21.55
2022-07-28T00:42:34.726Z,21.51
2022-07-28T00:45:01.564Z,21.50
2022-07-28T00:47:33.969Z,21.57
2022-07-28T00:50:02.548Z,21.45
2022-07-28T00:52:29.990Z,21.42
2022-07-28T00:54:58.427Z,21.53
2022-07-28T00:57:25.171Z,21.59
2022-07-28T00:59:51.883Z,21.70
2022-07-28T01:02:19.377Z,21.78
2022-07-28T01:04:46.710Z,22.01
2022-07-28T01:07:42.947Z,22.11
2022-07-28T01:10:20.078Z,22.24
2022-07-28T01:12:58.634Z,22.30
2022-07-28T01:15:31.269Z,22.32
2022-07-28T01:18:03.764Z,22.33
2022-07-28T01:20:50.066Z,22.41
2022-07-28T01:23:32.123Z,22.41
2022-07-28T01:26:32.573Z,22.48
2022-07-28T01:29:37.048Z,22.43
2022-07-28T01:32:13.045Z,22.13
2022-07-28T01:34:49.162Z,22.04
2022-07-28T01:37:21.584Z,21.79
2022-07-28T01:39:52.486Z,21.59
2022-07-28T01:42:22.882Z,21.50
2022-07-28T01:44:52.209Z,21.45
2022-07-28T01:47:21.899Z,21.45
2022-07-28T01:49:50.163Z,21.42
2022-07-28T01:52:18.930Z,21.39
2022-07-28T01:54:47.177Z,21.35
2022-07-28T01:57:17.809Z,21.42
2022-07-28T01:59:45.515Z,21.40
2022-07-28T02:02:14.237Z,21.31
2022-07-28T02:04:43.996Z,21.41
2022-07-28T02:07:12.416Z,21.54
2022-07-28T02:09:40.663Z,21.60
2022-07-28T02:12:08.660Z,21.65
2022-07-28T02:14:36.865Z,21.65
2022-07-28T02:17:10.233Z,21.68
2022-07-28T02:19:39.498Z,21.70
2022-07-28T02:22:07.771Z,21.68
2022-07-28T02:24:35.773Z,21.74
2022-07-28T02:27:59.630Z,21.67
2022-07-28T02:30:50.654Z,21.53
2022-07-28T02:33:24.412Z,21.48
2022-07-28T02:36:17.308Z,21.49
2022-07-28T02:38:47.081Z,21.52
2022-07-28T02:41:18.954Z,21.56
2022-07-28T02:43:49.202Z,21.51
2022-07-28T02:46:20.261Z,21.47
2022-07-28T02:48:52.009Z,21.45
2022-07-28T02:51:23.534Z,21.39
2022-07-28T02:53:51.133Z,21.40
2022-07-28T02:56:18.291Z,21.41
2022-07-28T02:58:46.671Z,21.34
2022-07-28T03:01:20.691Z,21.30
2022-07-28T03:03:48.964Z,21.23
2022-07-28T03:06:20.375Z,21.09
2022-07-28T03:08:57.032Z,21.14
2022-07-28T03:11:23.743Z,21.08
2022-07-28T03:13:50.493Z,21.05
2022-07-28T03:16:17.258Z,20.99
2022-07-28T03:18:43.976Z,20.92
2022-07-28T03:21:10.724Z,20.82
2022-07-28T03:23:42.079Z,20.81
2022-07-28T03:26:15.511Z,20.91
2022-07-28T03:28:43.298Z,20.89
2022-07-28T03:31:12.280Z,20.86
2022-07-28T03:33:39.791Z,20.87
2022-07-28T03:36:12.808Z,20.87
2022-07-28T03:38:45.854Z,20.86
2022-07-28T03:41:15.083Z,20.82
2022-07-28T03:43:44.421Z,20.83
2022-07-28T03:46:13.305Z,20.89
2022-07-28T03:48:40.434Z,20.93
2022-07-28T03:51:07.202Z,20.94
2022-07-28T03:53:34.182Z,20.95
2022-07-28T03:56:01.043Z,20.91
2022-07-28T03:58:28.746Z,20.98
2022-07-28T04:00:56.766Z,20.90
2022-07-28T04:03:37.589Z,20.91
2022-07-28T04:06:15.427Z,20.81
2022-07-28T04:08:43.334Z,20.93
2022-07-28T04:11:10.094Z,21.06
2022-07-28T04:13:37.319Z,21.10
2022-07-28T04:16:05.730Z,21.11
2022-07-28T04:18:32.572Z,21.16
2022-07-28T04:20:59.376Z,21.23
2022-07-28T04:23:26.249Z,21.22
2022-07-28T04:25:53.069Z,21.32
2022-07-28T04:28:19.940Z,21.24
2022-07-28T04:30:46.887Z,21.24
2022-07-28T04:33:13.979Z,21.33
2022-07-28T04:35:40.923Z,21.35
2022-07-28T04:38:08.012Z,21.49
2022-07-28T04:40:34.919Z,21.60
2022-07-28T04:43:02.972Z,21.58
2022-07-28T04:45:29.924Z,21.63
2022-07-28T04:47:56.727Z,21.73
2022-07-28T04:50:23.528Z,21.75
2022-07-28T04:52:58.865Z,21.72
2022-07-28T04:55:26.131Z,21.53
2022-07-28T04:57:52.931Z,21.52
2022-07-28T05:00:22.717Z,21.61
2022-07-28T05:02:50.573Z,21.65
2022-07-28T05:05:18.181Z,21.71
2022-07-28T05:07:44.947Z,21.81
2022-07-28T05:10:12.710Z,21.71
2022-07-28T05:12:39.727Z,21.70
2022-07-28T05:15:07.405Z,21.72
2022-07-28T05:17:34.615Z,21.74
2022-07-28T05:20:03.216Z,21.75
2022-07-28T05:22:42.122Z,21.73
2022-07-28T05:25:17.483Z,21.87
2022-07-28T05:27:47.794Z,21.89
2022-07-28T05:30:15.926Z,21.79
2022-07-28T05:32:43.973Z,22.25
2022-07-28T05:35:10.847Z,22.51
2022-07-28T05:37:38.154Z,22.68
2022-07-28T05:40:10.666Z,22.96
2022-07-28T05:42:37.475Z,23.05
2022-07-28T05:45:17.031Z,23.08
2022-07-28T05:47:46.555Z,23.19
2022-07-28T05:50:17.846Z,23.29
2022-07-28T05:52:45.779Z,23.38
2022-07-28T05:55:13.390Z,23.32
2022-07-28T05:57:40.716Z,23.34
2022-07-28T06:00:09.458Z,23.19
2022-07-28T06:02:39.972Z,23.10
2022-07-28T06:05:07.318Z,22.98
2022-07-28T06:07:42.891Z,22.93
2022-07-28T06:10:19.097Z,22.97
2022-07-28T06:12:48.118Z,22.95
2022-07-28T06:15:17.210Z,22.91
2022-07-28T06:17:45.769Z,22.89
2022-07-28T06:20:13.480Z,22.77
2022-07-28T06:22:51.955Z,22.79
2022-07-28T06:25:20.125Z,22.83
2022-07-28T06:27:48.660Z,22.75
2022-07-28T06:30:16.864Z,22.82
2022-07-28T06:32:44.435Z,23.05
2022-07-28T06:35:14.719Z,23.36
2022-07-28T06:37:41.502Z,23.57
2022-07-28T06:40:08.996Z,23.72
2022-07-28T06:42:35.694Z,23.80
2022-07-28T06:45:02.499Z,23.87
2022-07-28T06:47:29.286Z,23.95
2022-07-28T06:49:56.133Z,24.04
2022-07-28T06:52:22.982Z,23.96
2022-07-28T06:54:51.755Z,23.88
2022-07-28T06:57:22.503Z,24.07
2022-07-28T06:59:55.432Z,24.01
2022-07-28T07:02:26.380Z,23.93
2022-07-28T07:04:54.925Z,23.50
2022-07-28T07:07:22.739Z,23.17
2022-07-28T07:09:49.635Z,23.32
2022-07-28T07:12:16.445Z,23.26
2022-07-28T07:14:43.193Z,23.17
2022-07-28T07:17:09.814Z,23.11
2022-07-28T07:19:37.075Z,23.02
2022-07-28T07:22:03.733Z,22.93
2022-07-28T07:24:30.488Z,22.96
2022-07-28T07:26:57.195Z,22.95
2022-07-28T07:29:24.440Z,22.94
2022-07-28T07:31:52.808Z,22.99
2022-07-28T07:34:19.872Z,22.98
2022-07-28T07:36:46.947Z,23.03
2022-07-28T07:39:13.725Z,23.04
2022-07-28T07:41:40.453Z,23.07
2022-07-28T07:44:07.237Z,23.14
2022-07-28T07:46:33.982Z,23.20
2022-07-28T07:49:00.799Z,23.27
2022-07-28T07:51:27.808Z,23.30
2022-07-28T07:53:54.613Z,23.40
2022-07-28T07:56:21.335Z,23.33
2022-07-28T07:58:53.643Z,23.40
2022-07-28T08:01:23.287Z,23.49
2022-07-28T08:03:50.323Z,23.56
2022-07-28T08:06:17.065Z,23.51
2022-07-28T08:08:53.148Z,23.61
2022-07-28T08:11:19.878Z,23.65
2022-07-28T08:13:46.669Z,23.75
2022-07-28T08:16:13.375Z,23.76
2022-07-28T08:18:40.073Z,23.75
2022-07-28T08:21:06.747Z,23.83
2022-07-28T08:23:33.448Z,23.97
2022-07-28T08:26:00.503Z,23.91
2022-07-28T08:28:27.774Z,23.98
2022-07-28T08:30:54.554Z,24.04
2022-07-28T08:33:22.070Z,24.13
2022-07-28T08:35:49.866Z,24.25
2022-07-28T08:38:16.734Z,24.26
2022-07-28T08:40:48.670Z,24.30
2022-07-28T08:43:23.934Z,24.23
2022-07-28T08:45:57.820Z,24.30
2022-07-28T08:48:29.964Z,24.50
2022-07-28T08:51:01.746Z,24.66
2022-07-28T08:53:31.054Z,24.70
2022-07-28T08:56:08.772Z,24.73
2022-07-28T08:58:37.230Z,24.73
2022-07-28T09:01:06.959Z,24.83
2022-07-28T09:03:34.291Z,24.80
2022-07-28T09:06:00.987Z,24.77
2022-07-28T09:08:27.838Z,24.78
2022-07-28T09:10:54.831Z,24.88
2022-07-28T09:13:21.710Z,24.89
2022-07-28T09:15:48.730Z,24.86
2022-07-28T09:18:17.387Z,24.92
2022-07-28T09:20:45.461Z,24.95
2022-07-28T09:23:41.669Z,24.96
2022-07-28T09:26:12.533Z,25.10
2022-07-28T09:28:55.655Z,25.14
2022-07-28T09:31:24.931Z,25.11
2022-07-28T09:34:03.403Z,25.06
2022-07-28T09:36:42.069Z,25.11
2022-07-28T09:39:09.167Z,25.11
2022-07-28T09:42:08.246Z,25.17
2022-07-28T09:44:34.985Z,25.33
2022-07-28T09:47:23.110Z,25.41
2022-07-28T09:49:50.737Z,25.55
2022-07-28T09:52:35.136Z,25.69
2022-07-28T09:55:10.568Z,25.74
2022-07-28T09:57:39.619Z,25.85
2022-07-28T10:00:13.497Z,25.87
2022-07-28T10:02:40.656Z,25.83
2022-07-28T10:05:08.094Z,25.88
2022-07-28T10:07:49.434Z,26.00
2022-07-28T10:10:20.793Z,26.12
2022-07-28T10:12:47.645Z,26.23
2022-07-28T10:15:38.365Z,26.32
2022-07-28T10:18:13.487Z,26.30
2022-07-28T10:20:41.589Z,26.21
2022-07-28T10:23:13.388Z,26.27
2022-07-28T10:25:43.357Z,26.25
2022-07-28T10:28:11.895Z,26.33
2022-07-28T10:30:45.229Z,26.40
2022-07-28T10:33:19.088Z,26.39
2022-07-28T10:35:55.271Z,26.47
2022-07-28T10:38:33.512Z,26.55
2022-07-28T10:41:04.135Z,26.57
2022-07-28T10:43:42.852Z,26.67
2022-07-28T10:46:17.333Z,26.73
2022-07-28T10:49:09.187Z,26.76
2022-07-28T10:52:05.023Z,26.86
2022-07-28T10:55:04.081Z,26.93
2022-07-28T10:57:38.638Z,26.99
2022-07-28T11:00:26.338Z,27.00
2022-07-28T11:03:13.715Z,27.02
2022-07-28T11:06:14.774Z,27.07
2022-07-28T11:08:43.013Z,27.20
2022-07-28T11:11:46.358Z,27.34
2022-07-28T11:14:39.586Z,27.49
2022-07-28T11:17:19.903Z,27.53
2022-07-28T11:20:26.036Z,27.62
2022-07-28T11:22:52.431Z,27.79
2022-07-28T11:25:22.733Z,27.88
2022-07-28T11:27:55.066Z,27.99
2022-07-28T11:30:29.396Z,28.04
2022-07-28T11:33:05.276Z,28.11
2022-07-28T11:35:56.658Z,28.21
2022-07-28T11:38:26.261Z,28.35
2022-07-28T11:40:56.249Z,28.39
2022-07-28T11:43:27.934Z,28.51
2022-07-28T11:46:09.837Z,28.50
2022-07-28T11:48:44.141Z,28.69
2022-07-28T11:51:12.957Z,28.68
2022-07-28T11:53:45.626Z,28.79
2022-07-28T11:56:15.623Z,28.86
2022-07-28T11:58:45.492Z,28.97
2022-07-28T12:01:22.692Z,28.96
2022-07-28T12:03:59.543Z,29.04
2022-07-28T12:06:40.916Z,29.04
2022-07-28T12:09:11.258Z,29.06
2022-07-28T12:11:42.975Z,29.03
2022-07-28T12:14:23.311Z,28.90
2022-07-28T12:16:51.766Z,28.85
2022-07-28T12:19:21.948Z,28.92
2022-07-28T12:21:52.083Z,28.83
2022-07-28T12:24:27.594Z,28.83
2022-07-28T12:27:01.800Z,28.72
2022-07-28T12:29:35.472Z,28.72
2022-07-28T12:32:06.987Z,28.71
2022-07-28T12:34:45.645Z,28.71
2022-07-28T12:37:14.609Z,28.74
2022-07-28T12:39:44.328Z,28.73
2022-07-28T12:42:15.126Z,28.63
2022-07-28T12:44:44.616Z,28.55
2022-07-28T12:47:13.376Z,28.55
2022-07-28T12:49:42.426Z,28.50
2022-07-28T12:52:18.632Z,28.51
2022-07-28T12:55:06.259Z,28.53
2022-07-28T12:57:50.291Z,28.38
2022-07-28T13:00:30.149Z,28.36
2022-07-28T13:03:18.857Z,28.30
2022-07-28T13:06:04.916Z,28.14
2022-07-28T13:08:44.699Z,28.20
2022-07-28T13:14:04.470Z,28.21
2022-07-28T13:16:38.068Z,28.22
2022-07-28T13:19:07.894Z,28.19
2022-07-28T13:21:58.358Z,28.14
2022-07-28T13:24:33.324Z,28.12
2022-07-28T13:27:03.956Z,28.17
2022-07-28T13:29:38.183Z,28.10
2022-07-28T13:32:08.645Z,28.09
2022-07-28T13:34:36.059Z,28.13
2022-07-28T13:37:05.752Z,28.20
2022-07-28T13:39:35.737Z,28.20
2022-07-28T13:42:05.302Z,28.24
2022-07-28T13:44:34.285Z,28.24
2022-07-28T13:47:02.688Z,28.29
2022-07-28T13:49:34.551Z,28.25
2022-07-28T13:52:02.395Z,28.24
2022-07-28T13:54:29.640Z,28.30
2022-07-28T13:56:57.501Z,28.32
2022-07-28T13:59:27.666Z,28.36
2022-07-28T14:01:58.099Z,28.32
2022-07-28T14:04:31.759Z,28.31
2022-07-28T14:07:00.704Z,28.35
2022-07-28T14:09:28.167Z,28.38
2022-07-28T14:11:55.441Z,28.41
2022-07-28T14:14:25.583Z,28.42
2022-07-28T14:17:00.045Z,28.40
2022-07-28T14:19:38.723Z,28.41
2022-07-28T14:22:13.085Z,28.42
2022-07-28T14:24:43.927Z,28.39
2022-07-28T14:27:12.069Z,28.41
2022-07-28T14:29:43.452Z,28.40
2022-07-28T14:32:12.282Z,28.47
2022-07-28T14:34:39.978Z,28.45
2022-07-28T14:37:08.963Z,28.50
2022-07-28T14:39:40.420Z,28.52
2022-07-28T14:42:09.158Z,28.51
2022-07-28T14:44:36.506Z,28.53
2022-07-28T14:47:04.138Z,28.57
2022-07-28T14:49:34.267Z,28.63
2022-07-28T14:52:02.679Z,28.66
2022-07-28T14:54:30.195Z,28.67
2022-07-28T14:56:58.140Z,28.69
2022-07-28T14:59:25.127Z,28.66
2022-07-28T15:01:55.323Z,28.69
2022-07-28T15:04:24.335Z,28.74
2022-07-28T15:06:53.197Z,28.90
2022-07-28T15:09:24.382Z,29.01
2022-07-28T15:11:55.408Z,28.98
2022-07-28T15:14:27.860Z,28.99
2022-07-28T15:16:56.719Z,29.02
2022-07-28T15:19:23.974Z,29.01
2022-07-28T15:21:52.950Z,28.95
2022-07-28T15:24:22.360Z,29.02
2022-07-28T15:26:52.327Z,29.20
2022-07-28T15:29:21.515Z,29.49
2022-07-28T15:31:55.978Z,29.48
2022-07-28T15:34:24.890Z,29.32
2022-07-28T15:36:55.578Z,29.21
2022-07-28T15:39:23.972Z,29.15
2022-07-28T15:41:55.021Z,29.18
2022-07-28T15:44:25.772Z,29.53
2022-07-28T15:46:58.143Z,29.93
2022-07-28T15:49:35.773Z,29.56
2022-07-28T15:52:06.107Z,29.92
2022-07-28T15:54:35.871Z,29.54
2022-07-28T15:57:16.231Z,29.39
2022-07-28T15:59:52.275Z,29.34
2022-07-28T16:05:13.036Z,29.36
2022-07-28T16:07:47.095Z,29.30
2022-07-28T16:10:14.980Z,29.30
2022-07-28T16:12:48.120Z,29.31
2022-07-28T16:15:28.605Z,29.35
2022-07-28T16:18:03.153Z,29.32
2022-07-28T16:20:39.778Z,29.53
2022-07-28T16:23:20.173Z,29.53
2022-07-28T16:25:48.766Z,29.52
2022-07-28T16:28:16.959Z,29.44
2022-07-28T16:30:51.978Z,29.47
2022-07-28T16:33:22.023Z,29.36
2022-07-28T16:35:52.272Z,29.31
2022-07-28T16:38:23.885Z,29.31
2022-07-28T16:40:58.442Z,29.23
2022-07-28T16:43:31.629Z,29.21
2022-07-28T16:46:13.028Z,29.15
2022-07-28T16:48:51.369Z,29.10
2022-07-28T16:51:22.494Z,29.10
2022-07-28T16:53:52.387Z,29.04
2022-07-28T16:56:21.947Z,29.01
2022-07-28T16:58:50.705Z,28.97
2022-07-28T17:01:18.643Z,28.95
2022-07-28T17:03:48.337Z,28.91
2022-07-28T17:06:30.477Z,28.85
2022-07-28T17:08:59.611Z,28.80
2022-07-28T17:11:28.561Z,28.75
2022-07-28T17:14:00.359Z,28.69
2022-07-28T17:16:30.195Z,28.67
2022-07-28T17:19:03.698Z,28.63
2022-07-28T17:21:37.280Z,28.58
2022-07-28T17:24:07.942Z,28.50
2022-07-28T17:29:30.883Z,28.40
2022-07-28T17:32:00.136Z,28.34
2022-07-28T17:34:27.322Z,28.30
2022-07-28T17:36:59.988Z,28.26
2022-07-28T17:39:49.633Z,28.22
2022-07-28T17:42:18.986Z,28.17
2022-07-28T17:44:45.997Z,28.12
2022-07-28T17:47:14.009Z,28.07
2022-07-28T17:49:47.595Z,28.02
2022-07-28T17:52:15.029Z,27.95
2022-07-28T17:55:01.708Z,27.90
2022-07-28T17:57:31.046Z,27.79
2022-07-28T18:00:05.673Z,27.79
2022-07-28T18:02:47.206Z,27.70
2022-07-28T18:05:24.689Z,27.64
2022-07-28T18:07:56.042Z,27.50
2022-07-28T18:10:31.418Z,27.50
2022-07-28T18:12:59.630Z,27.53
2022-07-28T18:15:30.757Z,27.53
2022-07-28T18:17:58.658Z,27.44
2022-07-28T18:20:26.330Z,27.40
2022-07-28T18:22:54.459Z,27.19
2022-07-28T18:25:29.786Z,27.02
2022-07-28T18:27:56.933Z,26.94
2022-07-28T18:30:31.388Z,26.86
2022-07-28T18:33:02.262Z,26.68
2022-07-28T18:35:30.484Z,26.50
2022-07-28T18:38:00.172Z,26.33
2022-07-28T18:40:34.638Z,26.25
2022-07-28T18:43:02.428Z,26.09
2022-07-28T18:45:35.383Z,25.97
2022-07-28T18:48:08.844Z,25.78
2022-07-28T18:50:35.711Z,25.73
2022-07-28T18:53:15.209Z,25.62
2022-07-28T18:55:42.297Z,25.53
2022-07-28T18:58:19.281Z,25.45
2022-07-28T19:00:46.627Z,25.39
2022-07-28T19:03:18.631Z,25.28
2022-07-28T19:05:46.741Z,25.08
2022-07-28T19:08:17.431Z,24.96
2022-07-28T19:10:49.628Z,24.94
2022-07-28T19:13:16.405Z,24.80
2022-07-28T19:15:48.593Z,24.66
2022-07-28T19:18:17.064Z,24.62
2022-07-28T19:20:49.333Z,24.61
2022-07-28T19:23:23.325Z,24.63
2022-07-28T19:25:56.531Z,24.49
2022-07-28T19:28:24.592Z,24.50
2022-07-28T19:30:58.902Z,24.61
2022-07-28T19:33:26.722Z,24.50
2022-07-28T19:35:54.120Z,24.46
2022-07-28T19:38:26.578Z,24.36
2022-07-28T19:40:57.064Z,24.25
2022-07-28T19:43:23.922Z,24.12
2022-07-28T19:45:57.631Z,24.01
2022-07-28T19:48:25.031Z,23.98
2022-07-28T19:50:56.821Z,24.02
2022-07-28T19:53:31.931Z,23.93
2022-07-28T19:55:59.345Z,23.84
2022-07-28T19:58:28.056Z,23.79
2022-07-28T20:00:56.509Z,23.81
2022-07-28T20:04:01.979Z,23.71
2022-07-28T20:06:13.606Z,23.78
2022-07-28T20:08:41.970Z,23.73
2022-07-28T20:11:09.408Z,23.67
2022-07-28T20:13:36.263Z,23.63
2022-07-28T20:16:03.313Z,23.52
2022-07-28T20:18:34.516Z,23.36
2022-07-28T20:21:05.471Z,23.26
2022-07-28T20:23:32.447Z,23.18
2022-07-28T20:25:59.297Z,23.16
2022-07-28T20:28:26.962Z,23.16
2022-07-28T20:30:54.310Z,23.16
2022-07-28T20:33:21.486Z,23.05
2022-07-28T20:35:53.237Z,22.94
2022-07-28T20:38:24.532Z,22.86
2022-07-28T20:40:52.339Z,22.81
2022-07-28T20:43:23.149Z,22.78
2022-07-28T20:46:01.973Z,22.61
2022-07-28T20:48:31.568Z,22.55
2022-07-28T20:51:00.582Z,22.51
2022-07-28T20:53:32.563Z,22.47
2022-07-28T20:55:59.728Z,22.47
2022-07-28T20:58:38.541Z,22.46
2022-07-28T21:01:05.753Z,22.53
2022-07-28T21:03:40.572Z,22.42
2022-07-28T21:06:12.328Z,22.15
2022-07-28T21:08:43.594Z,22.24
2022-07-28T21:11:16.301Z,22.18
2022-07-28T21:13:46.632Z,22.25
2022-07-28T21:16:20.991Z,22.25
2022-07-28T21:18:50.253Z,22.23
2022-07-28T21:21:18.982Z,22.21
2022-07-28T21:23:46.589Z,22.17
2022-07-28T21:26:19.741Z,22.00
2022-07-28T21:29:06.247Z,22.08
2022-07-28T21:31:36.262Z,21.98
2022-07-28T21:34:24.586Z,21.92
2022-07-28T21:36:51.544Z,21.82
2022-07-28T21:39:22.106Z,21.88
2022-07-28T21:41:53.412Z,21.98
2022-07-28T21:44:20.567Z,21.99
2022-07-28T21:46:48.337Z,21.84
2022-07-28T21:49:15.703Z,21.73
2022-07-28T21:51:44.958Z,21.64
2022-07-28T21:54:16.356Z,21.59
2022-07-28T21:56:51.504Z,21.62
2022-07-28T21:59:19.499Z,21.63
2022-07-28T22:01:47.385Z,21.62
2022-07-28T22:04:14.823Z,21.54
2022-07-28T22:06:46.037Z,21.44
2022-07-28T22:09:18.970Z,21.41
2022-07-28T22:11:53.213Z,21.41
2022-07-28T22:14:34.162Z,21.38
2022-07-28T22:17:05.470Z,21.37
2022-07-28T22:19:38.376Z,21.41
2022-07-28T22:22:09.802Z,21.42
2022-07-28T22:24:38.855Z,21.43
2022-07-28T22:27:08.827Z,21.28
2022-07-28T22:29:52.222Z,21.32
2022-07-28T22:32:28.668Z,21.32
2022-07-28T22:34:59.167Z,21.36
2022-07-28T22:37:26.858Z,21.36
2022-07-28T22:39:58.675Z,21.37
2022-07-28T22:42:34.861Z,21.30
2022-07-28T22:45:02.018Z,21.14
2022-07-28T22:47:31.652Z,21.15
2022-07-28T22:49:59.058Z,21.03
2022-07-28T22:52:36.107Z,21.01
2022-07-28T22:57:52.154Z,20.86
2022-07-28T23:00:25.122Z,20.87
2022-07-28T23:02:53.101Z,20.69
2022-07-28T23:05:28.043Z,20.69
2022-07-28T23:07:58.650Z,20.73
2022-07-28T23:10:30.709Z,20.88
2022-07-28T23:12:59.255Z,20.98
2022-07-28T23:15:41.498Z,20.94
2022-07-28T23:18:19.152Z,20.96
2022-07-28T23:20:46.852Z,20.93
2022-07-28T23:23:15.941Z,20.97
2022-07-28T23:25:43.108Z,20.97
2022-07-28T23:28:17.354Z,20.92
2022-07-28T23:30:46.637Z,20.93
2022-07-28T23:33:55.611Z,20.81
2022-07-28T23:36:08.585Z,20.67
2022-07-28T23:38:45.086Z,20.69
2022-07-28T23:41:17.727Z,20.69
2022-07-28T23:43:54.798Z,20.60
2022-07-28T23:46:23.409Z,20.53
2022-07-28T23:48:52.026Z,20.39
2022-07-28T23:51:47.487Z,20.40
2022-07-28T23:54:19.257Z,20.43
2022-07-28T23:57:00.368Z,20.15
2022-07-28T23:59:36.350Z,20.46
